Time;durP1;ratioP1;P1;durP2;ratioP2;P2;SDS_P1;SDS_P2;PMS_P1;PMS_P2;Temp;Humidity;BMP_temperature;BMP_pressure;BME280_temperature;BME280_humidity;BME280_pressure;Samples;Min_cycle;Max_cycle;Signal;HPM_P1;HPM_P2
2022/10/03 00:01:31;;;;;;;12.02;6.30;;;11.90;99.90;;;;;;5010335;28;20050;-78
2022/10/03 00:04:00;;;;;;;7.70;5.13;;;11.80;99.90;;;;;;5009240;28;20030;-79
2022/10/03 00:06:31;;;;;;;14.55;7.22;;;11.80;99.90;;;;;;5010179;28;20114;-78
2022/10/03 00:09:12;;;;;;;9.73;5.88;;;11.80;99.90;;;;;;5003446;28;20033;-79
2022/10/03 00:12:16;;;;;;;7.10;5.45;;;11.70;99.90;;;;;;5005914;28;20830;-78
2022/10/03 00:15:01;;;;;;;8.65;6.20;;;11.60;99.90;;;;;;5013798;28;20026;-79
2022/10/03 00:17:42;;;;;;;8.70;6.10;;;11.60;99.90;;;;;;5005110;28;20528;-78
2022/10/03 00:20:32;;;;;;;9.48;6.90;;;11.60;99.90;;;;;;5021668;28;20033;-78
2022/10/03 00:23:08;;;;;;;10.27;6.68;;;11.60;99.90;;;;;;5010136;28;20026;-79
2022/10/03 00:25:36;;;;;;;9.65;6.47;;;11.60;99.90;;;;;;5004459;28;20030;-78
2022/10/03 00:28:02;;;;;;;10.13;6.15;;;11.60;99.90;;;;;;5005313;28;24871;-78
2022/10/03 00:30:41;;;;;;;13.10;6.68;;;11.50;99.90;;;;;;5002050;28;20034;-78
2022/10/03 00:33:30;;;;;;;8.82;6.10;;;11.50;99.90;;;;;;5009700;28;20022;-79
2022/10/03 00:36:03;;;;;;;10.57;6.80;;;11.50;99.90;;;;;;5025836;28;20053;-79
2022/10/03 00:38:34;;;;;;;10.07;5.57;;;11.50;99.90;;;;;;5022858;28;20142;-79
2022/10/03 00:41:25;;;;;;;12.32;6.43;;;11.50;99.90;;;;;;5003643;28;20082;-78
2022/10/03 00:44:03;;;;;;;10.57;6.55;;;11.50;99.90;;;;;;5010352;28;20029;-78
2022/10/03 00:46:49;;;;;;;9.55;6.45;;;11.50;99.90;;;;;;5007648;28;20070;-79
2022/10/03 00:49:42;;;;;;;9.55;5.57;;;11.50;99.90;;;;;;5015110;28;20030;-79
2022/10/03 00:52:28;;;;;;;8.98;5.72;;;11.50;99.90;;;;;;5010613;28;20025;-79
2022/10/03 00:55:08;;;;;;;8.68;5.72;;;11.50;99.90;;;;;;4993456;28;20057;-78
2022/10/03 00:57:56;;;;;;;6.30;5.13;;;11.50;99.90;;;;;;5006038;28;20411;-77
2022/10/03 01:00:33;;;;;;;7.28;5.00;;;11.50;99.90;;;;;;5000564;28;20492;-77
2022/10/03 01:03:19;;;;;;;8.73;5.40;;;11.50;99.90;;;;;;4995968;28;20104;-77
2022/10/03 01:05:57;;;;;;;7.55;5.82;;;11.50;99.90;;;;;;4992561;28;20393;-77
2022/10/03 01:08:41;;;;;;;7.75;5.90;;;11.50;99.90;;;;;;4995875;28;20400;-77
2022/10/03 01:11:31;;;;;;;8.18;5.45;;;11.50;99.90;;;;;;5010859;28;20026;-77
2022/10/03 01:14:09;;;;;;;7.82;5.43;;;11.50;99.90;;;;;;5003727;28;20035;-77
2022/10/03 01:17:11;;;;;;;9.23;6.68;;;11.50;99.90;;;;;;5010905;28;20542;-77
2022/10/03 01:19:58;;;;;;;12.57;6.68;;;11.50;99.90;;;;;;4994593;28;20042;-77
2022/10/03 01:22:46;;;;;;;9.48;6.25;;;11.60;99.90;;;;;;4991361;28;20034;-77
2022/10/03 01:25:49;;;;;;;10.80;7.25;;;11.60;99.90;;;;;;4995386;28;20026;-77
2022/10/03 01:31:09;;;;;;;10.57;6.43;;;11.60;99.90;;;;;;4993738;28;20407;-76
2022/10/03 01:33:45;;;;;;;11.70;6.45;;;11.60;99.90;;;;;;4994363;28;20018;-76
2022/10/03 01:36:22;;;;;;;11.45;5.93;;;11.50;99.90;;;;;;5006287;28;20022;-76
2022/10/03 01:38:59;;;;;;;9.43;5.85;;;11.60;99.90;;;;;;4993833;28;20041;-77
2022/10/03 01:41:33;;;;;;;11.93;7.35;;;11.60;99.90;;;;;;4993869;28;20038;-77
2022/10/03 01:44:23;;;;;;;8.23;5.68;;;11.60;99.90;;;;;;4990161;28;20026;-77
2022/10/03 01:47:20;;;;;;;9.60;6.00;;;11.60;99.90;;;;;;4993508;28;20034;-76
2022/10/03 01:50:04;;;;;;;10.40;6.20;;;11.70;99.90;;;;;;4993377;28;20108;-76
2022/10/03 01:53:03;;;;;;;7.18;5.55;;;11.70;99.90;;;;;;4995993;28;20058;-77
2022/10/03 01:56:07;;;;;;;9.70;5.75;;;11.70;99.90;;;;;;5005131;28;20038;-77
2022/10/03 01:59:05;;;;;;;8.60;5.63;;;11.70;99.90;;;;;;4960973;28;20042;-77
2022/10/03 02:01:47;;;;;;;10.75;5.75;;;11.70;99.90;;;;;;4992854;28;20042;-78
2022/10/03 02:04:50;;;;;;;8.98;5.00;;;11.70;99.90;;;;;;4990431;28;20031;-77
2022/10/03 02:08:02;;;;;;;9.43;4.93;;;11.70;99.90;;;;;;4998137;28;20038;-77
2022/10/03 02:10:43;;;;;;;10.70;5.65;;;11.70;99.90;;;;;;4985486;28;20054;-77
2022/10/03 02:13:23;;;;;;;7.97;4.82;;;11.70;99.90;;;;;;5007331;28;20034;-76
2022/10/03 02:16:13;;;;;;;7.72;5.43;;;11.60;99.90;;;;;;5009603;28;20038;-77
2022/10/03 02:18:45;;;;;;;8.15;4.30;;;11.60;99.90;;;;;;4993433;28;20526;-77
2022/10/03 02:21:18;;;;;;;7.40;4.10;;;11.60;99.90;;;;;;4990925;28;20023;-77
2022/10/03 02:23:45;;;;;;;4.72;4.10;;;11.60;99.90;;;;;;5004744;28;20083;-76
2022/10/03 02:26:34;;;;;;;5.25;3.58;;;11.50;99.90;;;;;;5009805;28;20088;-77
2022/10/03 02:29:09;;;;;;;6.93;5.05;;;11.60;99.90;;;;;;4983916;28;20384;-77
2022/10/03 02:31:56;;;;;;;5.68;3.53;;;11.50;99.90;;;;;;4989153;28;20026;-76
2022/10/03 02:35:06;;;;;;;5.32;4.18;;;11.60;99.90;;;;;;4990287;28;20034;-77
2022/10/03 02:38:07;;;;;;;7.70;4.68;;;11.60;99.90;;;;;;4991636;28;20042;-76
2022/10/03 02:40:36;;;;;;;8.73;5.10;;;11.60;99.90;;;;;;5004701;28;20054;-77
2022/10/03 02:43:40;;;;;;;7.15;4.78;;;11.60;99.90;;;;;;4994579;28;20480;-77
2022/10/03 02:46:41;;;;;;;6.53;4.80;;;11.60;99.90;;;;;;4991964;28;20030;-77
2022/10/03 02:49:22;;;;;;;7.35;5.20;;;11.60;99.90;;;;;;4975399;28;20546;-76
2022/10/03 02:52:14;;;;;;;8.75;5.28;;;11.60;99.90;;;;;;5004960;28;20051;-77
2022/10/03 02:55:26;;;;;;;8.38;6.03;;;11.50;99.90;;;;;;5009613;28;20022;-77
2022/10/03 02:58:20;;;;;;;9.57;6.75;;;11.50;99.90;;;;;;4996091;28;20041;-77
2022/10/03 03:01:23;;;;;;;9.27;5.93;;;11.50;99.90;;;;;;4993515;28;20019;-77
2022/10/03 03:04:11;;;;;;;9.43;6.03;;;11.50;99.90;;;;;;4992801;28;20045;-77
2022/10/03 03:07:19;;;;;;;7.93;5.70;;;11.50;99.90;;;;;;4992495;28;20069;-77
2022/10/03 03:10:15;;;;;;;7.97;5.88;;;11.50;99.90;;;;;;4990670;28;22024;-77
2022/10/03 03:13:08;;;;;;;9.77;5.30;;;11.40;99.90;;;;;;4995111;28;20026;-77
2022/10/03 03:15:56;;;;;;;7.07;5.00;;;11.50;99.90;;;;;;5005913;28;20080;-77
2022/10/03 03:18:58;;;;;;;11.25;5.20;;;11.50;99.90;;;;;;4990988;28;20035;-76
2022/10/03 03:21:43;;;;;;;9.05;6.03;;;11.50;99.90;;;;;;4996090;28;20050;-76
2022/10/03 03:24:18;;;;;;;6.88;5.22;;;11.50;99.90;;;;;;5005812;28;20388;-76
2022/10/03 03:27:13;;;;;;;8.23;5.65;;;11.40;99.90;;;;;;4987121;28;20026;-76
2022/10/03 03:29:38;;;;;;;11.88;5.72;;;11.40;99.90;;;;;;4989613;28;20046;-77
2022/10/03 03:32:56;;;;;;;8.38;5.65;;;11.50;99.90;;;;;;5004731;28;20030;-76
2022/10/03 03:35:33;;;;;;;8.57;5.45;;;11.50;99.90;;;;;;4958349;28;20050;-76
2022/10/03 03:38:29;;;;;;;9.18;6.15;;;11.50;99.90;;;;;;4992161;28;20098;-77
2022/10/03 03:41:39;;;;;;;8.13;6.32;;;11.50;99.90;;;;;;5006670;28;20022;-76
2022/10/03 03:44:24;;;;;;;12.18;6.75;;;11.50;99.90;;;;;;4999448;28;20034;-76
2022/10/03 03:47:15;;;;;;;9.48;7.13;;;11.50;99.90;;;;;;4991552;28;20030;-76
2022/10/03 03:50:01;;;;;;;12.88;7.43;;;11.40;99.90;;;;;;4990751;28;20026;-76
2022/10/03 03:52:49;;;;;;;11.20;7.30;;;11.40;99.90;;;;;;4992574;28;20391;-76
2022/10/03 03:55:33;;;;;;;10.80;7.40;;;11.40;99.90;;;;;;4991134;28;20030;-76
2022/10/03 03:58:32;;;;;;;8.75;6.47;;;11.40;99.90;;;;;;4992311;28;20022;-76
2022/10/03 04:01:18;;;;;;;12.40;7.15;;;11.40;99.90;;;;;;4991801;28;20026;-76
2022/10/03 04:04:11;;;;;;;11.07;7.15;;;11.40;99.90;;;;;;4991811;28;20058;-76
2022/10/03 04:07:12;;;;;;;17.90;7.82;;;11.40;99.90;;;;;;4991767;28;20026;-75
2022/10/03 04:10:26;;;;;;;10.73;6.95;;;11.40;99.90;;;;;;4974152;28;20018;-75
2022/10/03 04:13:36;;;;;;;10.63;7.30;;;11.40;99.90;;;;;;4968876;28;20039;-75
2022/10/03 04:19:41;;;;;;;10.63;6.90;;;11.30;99.90;;;;;;4973491;28;20037;-75
2022/10/03 04:22:28;;;;;;;13.98;7.18;;;11.30;99.90;;;;;;4973604;28;20023;-75
2022/10/03 04:25:16;;;;;;;12.82;8.20;;;11.30;99.90;;;;;;4973377;28;20022;-75
2022/10/03 04:28:11;;;;;;;12.05;7.68;;;11.20;99.90;;;;;;4976789;28;20022;-76
2022/10/03 04:30:50;;;;;;;11.55;7.93;;;11.20;99.90;;;;;;4972769;28;20039;-75
2022/10/03 04:33:25;;;;;;;12.77;8.32;;;11.10;99.90;;;;;;4992531;28;20392;-75
2022/10/03 04:36:36;;;;;;;13.50;7.80;;;11.10;99.90;;;;;;4991459;28;20422;-75
2022/10/03 04:39:20;;;;;;;14.52;8.38;;;11.10;99.90;;;;;;4992742;28;20034;-75
2022/10/03 04:42:04;;;;;;;;;;;11.10;99.90;;;;;;4991826;28;20022;-75
2022/10/03 04:45:24;;;;;;;11.23;6.93;;;11.10;99.90;;;;;;4992849;28;19964;-75
2022/10/03 04:47:58;;;;;;;10.20;6.75;;;11.10;99.90;;;;;;4970609;28;20047;-76
2022/10/03 04:50:36;;;;;;;9.77;6.53;;;11.10;99.90;;;;;;4989027;28;20069;-76
2022/10/03 04:53:20;;;;;;;11.07;6.50;;;11.10;99.90;;;;;;4992619;28;20487;-76
2022/10/03 04:56:21;;;;;;;11.20;6.82;;;11.10;99.90;;;;;;4992269;28;20033;-77
2022/10/03 04:59:11;;;;;;;11.75;6.72;;;11.10;99.90;;;;;;4983773;28;20043;-76
2022/10/03 05:01:43;;;;;;;11.43;6.57;;;11.10;99.90;;;;;;4991387;28;20085;-76
2022/10/03 05:04:30;;;;;;;9.57;5.80;;;11.00;99.90;;;;;;4990723;28;20019;-76
2022/10/03 05:07:30;;;;;;;19.05;7.32;;;11.00;99.90;;;;;;4989742;28;20033;-76
2022/10/03 05:10:02;;;;;;;21.83;7.20;;;11.00;99.90;;;;;;4988440;28;20113;-77
2022/10/03 05:12:40;;;;;;;10.52;6.68;;;10.90;99.90;;;;;;4991385;28;20042;-76
2022/10/03 05:15:18;;;;;;;9.45;6.18;;;10.80;99.90;;;;;;4991069;28;20034;-76
2022/10/03 05:18:18;;;;;;;9.00;6.07;;;10.80;99.90;;;;;;4987324;28;20494;-77
2022/10/03 05:21:04;;;;;;;10.13;6.68;;;10.80;99.90;;;;;;5006903;28;20019;-77
2022/10/03 05:23:51;;;;;;;10.60;6.43;;;10.80;99.90;;;;;;4990220;28;20046;-76
2022/10/03 05:26:27;;;;;;;8.93;5.47;;;10.80;99.90;;;;;;4992411;28;20108;-76
2022/10/03 05:29:17;;;;;;;9.20;5.95;;;10.80;99.90;;;;;;4996920;28;20501;-77
2022/10/03 05:31:56;;;;;;;10.65;5.60;;;10.80;99.90;;;;;;5005642;28;20025;-76
2022/10/03 05:34:49;;;;;;;11.80;5.85;;;10.80;99.90;;;;;;4988200;28;20022;-76
2022/10/03 05:37:42;;;;;;;8.70;5.32;;;10.80;99.90;;;;;;4988705;28;20117;-77
2022/10/03 05:40:22;;;;;;;9.32;5.57;;;10.80;99.90;;;;;;4991234;28;20509;-76
2022/10/03 05:42:48;;;;;;;10.43;6.47;;;10.80;99.90;;;;;;4997735;28;20463;-77
2022/10/03 05:45:44;;;;;;;7.57;5.35;;;10.80;99.90;;;;;;5010407;28;20038;-76
2022/10/03 05:48:47;;;;;;;8.90;5.72;;;10.80;99.90;;;;;;4988675;28;20557;-76
2022/10/03 05:51:19;;;;;;;7.80;5.25;;;10.80;99.90;;;;;;5000301;28;20034;-76
2022/10/03 05:54:03;;;;;;;8.68;5.65;;;10.80;99.90;;;;;;4987321;28;20031;-76
2022/10/03 05:56:47;;;;;;;7.20;5.32;;;10.90;99.90;;;;;;4990039;28;20510;-77
2022/10/03 05:59:31;;;;;;;;;;;10.90;99.90;;;;;;4991853;28;20073;-77
2022/10/03 06:02:05;;;;;;;9.80;5.35;;;10.90;99.90;;;;;;4994952;28;20466;-76
2022/10/03 06:04:56;;;;;;;9.98;6.22;;;10.90;99.90;;;;;;5007081;28;20054;-76
2022/10/03 06:07:49;;;;;;;10.15;5.88;;;11.00;99.90;;;;;;4987133;28;20034;-76
2022/10/03 06:10:27;;;;;;;8.48;5.30;;;11.00;99.90;;;;;;4994962;28;20027;-76
2022/10/03 06:13:23;;;;;;;9.35;5.88;;;11.00;99.90;;;;;;4992798;28;20030;-76
2022/10/03 06:16:08;;;;;;;7.35;4.93;;;11.00;99.90;;;;;;4994730;28;20026;-77
2022/10/03 06:18:57;;;;;;;7.97;4.80;;;11.00;99.90;;;;;;4992439;28;20375;-75
2022/10/03 06:21:32;;;;;;;8.13;4.60;;;11.00;99.90;;;;;;4990373;28;20031;-76
2022/10/03 06:24:30;;;;;;;7.72;4.57;;;11.00;99.90;;;;;;4994457;28;20094;-77
2022/10/03 06:27:01;;;;;;;7.38;4.88;;;11.00;99.90;;;;;;5001619;28;20439;-76
2022/10/03 06:30:00;;;;;;;7.18;4.45;;;11.00;99.90;;;;;;4988571;28;20096;-76
2022/10/03 06:33:00;;;;;;;7.28;5.07;;;11.00;99.90;;;;;;4991837;28;20026;-76
2022/10/03 06:36:07;;;;;;;7.80;4.85;;;11.00;99.90;;;;;;4990419;28;20119;-76
2022/10/03 06:38:39;;;;;;;9.75;4.90;;;11.00;99.90;;;;;;4993367;28;20034;-77
2022/10/03 06:41:29;;;;;;;7.95;4.88;;;11.00;99.90;;;;;;4997553;28;20022;-77
2022/10/03 06:44:31;;;;;;;7.40;4.80;;;11.00;99.90;;;;;;4992409;28;20034;-77
2022/10/03 06:47:28;;;;;;;7.25;5.20;;;11.10;99.90;;;;;;4985802;28;20023;-77
2022/10/03 06:50:35;;;;;;;8.77;5.20;;;11.10;99.90;;;;;;4981030;28;20038;-75
2022/10/03 06:53:25;;;;;;;9.65;5.97;;;11.10;99.90;;;;;;4993103;28;20030;-76
2022/10/03 06:56:31;;;;;;;9.10;5.85;;;11.20;99.90;;;;;;4994745;28;20026;-76
2022/10/03 06:59:20;;;;;;;13.38;6.30;;;11.20;99.90;;;;;;5059670;22;20037;-74
2022/10/03 07:02:19;;;;;;;8.68;5.63;;;11.20;99.90;;;;;;5047445;28;20029;-70
2022/10/03 07:05:22;;;;;;;9.73;6.10;;;11.20;99.90;;;;;;5045253;28;20029;-71
2022/10/03 07:08:18;;;;;;;10.05;6.28;;;11.20;99.90;;;;;;5042878;28;20039;-69
2022/10/03 07:11:01;;;;;;;10.05;5.57;;;11.20;99.90;;;;;;5043860;28;20033;-68
2022/10/03 07:13:43;;;;;;;9.98;6.20;;;11.30;99.90;;;;;;5047424;28;20159;-70
2022/10/03 07:16:12;;;;;;;15.38;6.47;;;11.30;99.90;;;;;;5039617;28;20148;-71
2022/10/03 07:19:19;;;;;;;10.05;5.82;;;11.30;99.90;;;;;;5045101;28;20021;-71
2022/10/03 07:22:17;;;;;;;9.98;5.60;;;11.30;99.90;;;;;;5036532;28;20103;-74
2022/10/03 07:25:19;;;;;;;9.43;5.95;;;11.40;99.90;;;;;;5046762;28;20098;-75
2022/10/03 07:28:19;;;;;;;14.45;7.15;;;11.40;99.90;;;;;;5035358;28;20136;-74
2022/10/03 07:31:17;;;;;;;11.48;6.95;;;11.50;99.90;;;;;;5039530;28;20363;-76
2022/10/03 07:34:19;;;;;;;19.58;8.38;;;11.50;99.90;;;;;;5037199;28;20052;-76
2022/10/03 07:40:14;;;;;;;11.48;6.53;;;11.60;99.90;;;;;;5052730;28;20036;-75
2022/10/03 07:42:58;;;;;;;12.57;7.07;;;11.70;99.90;;;;;;5053000;28;20017;-75
2022/10/03 07:45:39;;;;;;;16.45;7.90;;;11.70;99.90;;;;;;5052709;28;20385;-74
2022/10/03 07:48:42;;;;;;;11.50;7.35;;;11.80;99.90;;;;;;5049479;28;20017;-75
2022/10/03 07:51:17;;;;;;;13.55;7.07;;;11.90;99.90;;;;;;5052339;28;20025;-75
2022/10/03 07:54:09;;;;;;;15.75;8.07;;;12.00;99.90;;;;;;5052682;28;20068;-77
2022/10/03 07:57:02;;;;;;;14.23;8.65;;;12.10;99.90;;;;;;5068047;28;20025;-76
2022/10/03 08:00:09;;;;;;;13.27;7.25;;;12.10;99.90;;;;;;5065919;28;20143;-76
2022/10/03 08:02:46;;;;;;;13.05;7.18;;;12.20;99.90;;;;;;5052103;28;20070;-77
2022/10/03 08:05:49;;;;;;;13.40;8.18;;;12.20;99.90;;;;;;5047101;28;20275;-76
2022/10/03 08:08:55;;;;;;;12.32;7.43;;;12.30;99.90;;;;;;5044288;28;20056;-76
2022/10/03 08:11:49;;;;;;;11.40;8.25;;;12.30;99.90;;;;;;5042414;28;20041;-76
2022/10/03 08:14:25;;;;;;;14.23;7.20;;;12.30;99.90;;;;;;5046918;28;20053;-75
2022/10/03 08:17:29;;;;;;;13.50;7.35;;;12.40;99.90;;;;;;5043285;28;20020;-76
2022/10/03 08:20:17;;;;;;;12.02;7.47;;;12.50;99.90;;;;;;5049582;28;20045;-74
2022/10/03 08:23:06;;;;;;;17.13;8.57;;;12.50;99.90;;;;;;5043412;28;20029;-74
2022/10/03 08:26:10;;;;;;;14.77;7.85;;;12.50;99.90;;;;;;5045446;28;20025;-74
2022/10/03 08:29:00;;;;;;;14.82;7.78;;;12.40;99.90;;;;;;5059817;28;20067;-74
2022/10/03 08:32:10;;;;;;;13.30;8.43;;;12.50;99.90;;;;;;5049253;28;20029;-73
2022/10/03 08:34:41;;;;;;;15.82;8.90;;;12.50;99.90;;;;;;5007094;28;20084;-73
2022/10/03 08:37:21;;;;;;;12.95;8.70;;;12.50;99.90;;;;;;5009312;28;20026;-75
2022/10/03 08:39:56;;;;;;;13.85;8.52;;;12.50;99.90;;;;;;5036842;28;20490;-75
2022/10/03 08:42:55;;;;;;;13.90;8.77;;;12.50;99.90;;;;;;5067295;28;20481;-76
2022/10/03 08:45:57;;;;;;;18.42;9.25;;;12.50;99.90;;;;;;5045735;28;20044;-74
2022/10/03 08:48:50;;;;;;;22.30;9.18;;;12.50;99.90;;;;;;5042688;28;20047;-76
2022/10/03 08:51:25;;;;;;;16.45;8.52;;;12.50;99.90;;;;;;5052033;28;20029;-77
2022/10/03 08:54:27;;;;;;;12.95;8.00;;;12.50;99.90;;;;;;5050395;28;20078;-76
2022/10/03 08:57:30;;;;;;;15.93;8.75;;;12.50;99.90;;;;;;5052139;28;20027;-76
2022/10/03 09:00:17;;;;;;;19.02;9.50;;;12.50;99.90;;;;;;5053144;28;20044;-77
2022/10/03 09:03:24;;;;;;;17.90;10.02;;;12.50;99.90;;;;;;5069341;28;20025;-76
2022/10/03 09:06:27;;;;;;;14.13;9.30;;;12.50;99.90;;;;;;5047425;28;20036;-75
2022/10/03 09:09:31;;;;;;;18.90;10.15;;;12.60;99.90;;;;;;5038432;28;20028;-74
2022/10/03 09:12:43;;;;;;;19.48;10.13;;;12.60;99.90;;;;;;4977848;28;20086;-75
2022/10/03 09:15:42;;;;;;;14.57;9.70;;;12.60;99.90;;;;;;5047611;28;20041;-75
2022/10/03 09:18:25;;;;;;;22.23;10.52;;;12.70;99.90;;;;;;5070627;28;20032;-75
2022/10/03 09:21:34;;;;;;;17.65;9.77;;;12.90;99.90;;;;;;5055336;28;20032;-75
2022/10/03 09:24:26;;;;;;;17.92;8.88;;;13.10;99.90;;;;;;5051558;28;20037;-75
2022/10/03 09:27:11;;;;;;;16.55;9.18;;;13.30;99.90;;;;;;5004290;28;20414;-74
2022/10/03 09:29:51;;;;;;;13.45;7.78;;;13.40;99.90;;;;;;5035299;28;20022;-73
2022/10/03 09:32:51;;;;;;;14.57;8.50;;;13.50;99.90;;;;;;5035027;28;20075;-73
2022/10/03 09:35:32;;;;;;;16.75;8.80;;;13.60;99.90;;;;;;5033777;28;20067;-74
2022/10/03 09:38:35;;;;;;;13.93;8.65;;;13.70;99.90;;;;;;5034981;28;20453;-76
2022/10/03 09:41:19;;;;;;;13.93;9.20;;;13.90;99.90;;;;;;5036935;28;20086;-74
2022/10/03 09:44:22;;;;;;;12.32;7.63;;;13.90;99.90;;;;;;5039140;28;20071;-76
2022/10/03 09:47:22;;;;;;;11.10;7.07;;;14.00;99.90;;;;;;5041699;28;20029;-75
2022/10/03 09:50:28;;;;;;;13.98;7.95;;;14.20;99.90;;;;;;5051527;28;20033;-74
2022/10/03 09:53:26;;;;;;;12.20;7.70;;;14.30;99.90;;;;;;5052690;28;20029;-74
2022/10/03 09:56:29;;;;;;;13.63;7.40;;;14.40;99.90;;;;;;5017811;28;20038;-75
2022/10/03 09:59:19;;;;;;;12.80;7.72;;;14.60;99.90;;;;;;5047038;28;20045;-75
2022/10/03 10:02:11;;;;;;;16.00;7.03;;;14.70;99.90;;;;;;5048448;28;20021;-74
2022/10/03 10:04:55;;;;;;;12.52;6.57;;;14.70;99.90;;;;;;5027532;28;20044;-73
2022/10/03 10:07:21;;;;;;;12.18;6.85;;;14.70;99.90;;;;;;5054315;28;20060;-75
2022/10/03 10:10:24;;;;;;;12.20;6.30;;;14.80;99.90;;;;;;5044437;28;20095;-74
2022/10/03 10:13:07;;;;;;;16.98;6.60;;;14.90;99.90;;;;;;5046134;28;20029;-74
2022/10/03 10:16:00;;;;;;;11.10;6.85;;;15.00;99.90;;;;;;5054267;28;20021;-75
2022/10/03 10:18:57;;;;;;;14.13;7.90;;;15.00;99.90;;;;;;5051392;28;20163;-74
2022/10/03 10:21:56;;;;;;;15.20;7.03;;;15.00;99.90;;;;;;5053972;28;20102;-74
2022/10/03 10:24:30;;;;;;;14.93;8.43;;;14.90;99.90;;;;;;5039301;28;20478;-74
2022/10/03 10:27:15;;;;;;;11.70;7.85;;;14.80;99.90;;;;;;5051561;28;20381;-75
2022/10/03 10:30:18;;;;;;;12.80;7.70;;;14.60;99.90;;;;;;5039433;28;20498;-75
2022/10/03 10:33:02;;;;;;;13.35;7.88;;;14.60;99.90;;;;;;5033742;28;20040;-75
2022/10/03 10:36:05;;;;;;;13.57;8.05;;;14.60;99.90;;;;;;5052632;28;20033;-75
2022/10/03 10:39:02;;;;;;;13.85;8.20;;;14.50;99.90;;;;;;5053840;28;20037;-74
2022/10/03 10:42:14;;;;;;;13.80;8.02;;;14.50;99.90;;;;;;5053853;28;20097;-74
2022/10/03 10:45:07;;;;;;;14.77;7.78;;;14.60;99.90;;;;;;5042484;28;20112;-74
2022/10/03 10:48:00;;;;;;;11.93;5.75;;;14.70;99.90;;;;;;5033884;28;20048;-74
2022/10/03 10:50:58;;;;;;;9.77;6.03;;;14.80;99.90;;;;;;5032889;28;20025;-75
2022/10/03 10:54:00;;;;;;;9.65;6.03;;;14.80;99.90;;;;;;5042714;28;20040;-75
2022/10/03 10:57:04;;;;;;;12.23;6.65;;;14.90;99.90;;;;;;5049088;28;20106;-74
2022/10/03 11:00:04;;;;;;;15.35;7.60;;;15.00;99.90;;;;;;5034605;28;20056;-74
2022/10/03 11:03:07;;;;;;;12.50;7.15;;;15.00;99.90;;;;;;5041468;28;20017;-75
2022/10/03 11:06:03;;;;;;;10.13;6.35;;;14.90;99.90;;;;;;5036819;28;20104;-72
2022/10/03 11:08:50;;;;;;;10.57;6.68;;;14.80;99.90;;;;;;5043484;28;20420;-73
2022/10/03 11:11:46;;;;;;;11.15;6.40;;;14.70;99.90;;;;;;5047273;28;20092;-74
2022/10/03 11:14:31;;;;;;;11.65;5.80;;;14.60;99.90;;;;;;5050542;28;20614;-77
2022/10/03 11:17:19;;;;;;;10.00;5.90;;;14.50;99.90;;;;;;5046216;28;20021;-76
2022/10/03 11:20:22;;;;;;;14.05;6.57;;;14.40;99.90;;;;;;5047020;28;20021;-75
2022/10/03 11:23:21;;;;;;;13.05;6.30;;;14.40;99.90;;;;;;5063020;28;20018;-74
2022/10/03 11:26:05;;;;;;;12.07;5.50;;;14.30;99.90;;;;;;5046535;28;20083;-75
2022/10/03 11:29:08;;;;;;;10.15;6.30;;;14.20;99.90;;;;;;5049087;28;20445;-74
2022/10/03 11:31:58;;;;;;;9.40;5.43;;;14.30;99.90;;;;;;5042437;28;20033;-75
2022/10/03 11:35:01;;;;;;;10.30;5.07;;;14.30;99.90;;;;;;5042659;28;20032;-77
2022/10/03 11:37:27;;;;;;;5.68;4.10;;;14.40;99.90;;;;;;5048531;28;20080;-78
2022/10/03 11:39:56;;;;;;;8.48;4.78;;;14.40;99.90;;;;;;5050106;28;20021;-77
2022/10/03 11:42:32;;;;;;;6.15;3.70;;;14.60;99.90;;;;;;5061196;28;20489;-76
2022/10/03 11:45:01;;;;;;;7.93;4.20;;;14.70;99.90;;;;;;5045590;28;20021;-77
2022/10/03 11:47:59;;;;;;;6.10;4.38;;;14.70;99.90;;;;;;5045957;28;20112;-78
2022/10/03 11:50:34;;;;;;;6.50;3.70;;;14.80;99.90;;;;;;5043749;28;20043;-75
2022/10/03 11:53:27;;;;;;;7.13;3.67;;;14.90;99.90;;;;;;5049563;28;20024;-75
2022/10/03 11:56:11;;;;;;;10.65;3.92;;;14.80;99.90;;;;;;5046059;28;20052;-77
2022/10/03 11:59:11;;;;;;;8.48;4.10;;;14.90;99.90;;;;;;5044802;28;20074;-74
2022/10/03 12:02:06;;;;;;;9.23;4.22;;;14.90;99.90;;;;;;5051042;28;20036;-74
2022/10/03 12:04:50;;;;;;;7.75;4.18;;;14.80;99.90;;;;;;5050744;28;20107;-74
2022/10/03 12:11:10;;;;;;;7.45;3.35;;;14.80;99.90;;;;;;5047495;28;20501;-75
2022/10/03 12:14:13;;;;;;;9.30;3.70;;;14.80;99.90;;;;;;5045776;28;20044;-74
2022/10/03 12:17:04;;;;;;;7.63;3.63;;;14.80;99.90;;;;;;5052595;28;20076;-76
2022/10/03 12:19:33;;;;;;;5.82;3.20;;;14.80;99.90;;;;;;5042194;28;20079;-76
2022/10/03 12:22:21;;;;;;;8.32;3.50;;;14.90;99.90;;;;;;5044094;28;20539;-76
2022/10/03 12:24:57;;;;;;;5.68;3.03;;;15.00;99.90;;;;;;5032332;28;20469;-77
2022/10/03 12:27:57;;;;;;;8.15;3.55;;;15.00;99.90;;;;;;5044644;28;20039;-75
2022/10/03 12:30:24;;;;;;;6.22;3.17;;;15.10;99.90;;;;;;5043489;28;20048;-76
2022/10/03 12:33:16;;;;;;;8.30;2.85;;;15.20;99.90;;;;;;5044670;28;20112;-76
2022/10/03 12:36:14;;;;;;;4.63;2.42;;;15.30;99.90;;;;;;5047135;28;20463;-77
2022/10/03 12:39:12;;;;;;;8.10;3.15;;;15.40;99.90;;;;;;5043818;28;20028;-77
2022/10/03 12:42:13;;;;;;;6.47;2.88;;;15.40;99.90;;;;;;5059273;28;20408;-77
2022/10/03 12:45:11;;;;;;;6.53;2.75;;;15.40;99.90;;;;;;5065196;28;20037;-78
2022/10/03 12:47:39;;;;;;;5.93;3.15;;;15.50;99.90;;;;;;5048031;28;20121;-77
2022/10/03 12:50:32;;;;;;;9.32;2.88;;;15.50;99.90;;;;;;5047685;28;20059;-77
2022/10/03 12:53:01;;;;;;;11.80;3.30;;;15.50;99.90;;;;;;5048805;28;20548;-77
2022/10/03 12:55:52;;;;;;;7.60;3.58;;;15.40;99.90;;;;;;5049354;28;20385;-77
2022/10/03 12:58:17;;;;;;;8.35;3.78;;;15.40;99.90;;;;;;5040752;23;20108;-77
2022/10/03 13:00:49;;;;;;;9.98;3.88;;;15.30;99.90;;;;;;5036241;28;20025;-77
2022/10/03 13:03:33;;;;;;;11.32;4.13;;;15.30;99.90;;;;;;5036456;28;20049;-76
2022/10/03 13:06:23;;;;;;;5.63;3.05;;;15.20;99.90;;;;;;5036101;28;20413;-77
2022/10/03 13:09:18;;;;;;;5.55;3.45;;;15.20;99.90;;;;;;5035071;28;20028;-75
2022/10/03 13:11:53;;;;;;;8.13;3.15;;;15.20;99.90;;;;;;5034115;28;20018;-76
2022/10/03 13:14:57;;;;;;;12.05;3.35;;;15.10;99.90;;;;;;5025240;28;20030;-75
2022/10/03 13:17:48;;;;;;;6.05;2.65;;;15.20;99.90;;;;;;5030944;28;20096;-75
2022/10/03 13:20:31;;;;;;;10.05;3.47;;;15.10;99.90;;;;;;5027562;28;20068;-75
2022/10/03 13:23:02;;;;;;;8.52;3.20;;;15.10;99.90;;;;;;5031299;28;20052;-75
2022/10/03 13:26:02;;;;;;;8.50;3.72;;;15.10;99.90;;;;;;5029322;28;20544;-75
2022/10/03 13:28:51;;;;;;;5.65;3.08;;;15.10;99.90;;;;;;5049740;28;20116;-75
2022/10/03 13:31:24;;;;;;;7.32;3.42;;;15.00;99.90;;;;;;5020094;28;20045;-76
2022/10/03 13:33:57;;;;;;;6.00;3.53;;;15.00;99.90;;;;;;5033406;28;20628;-75
2022/10/03 13:36:52;;;;;;;6.22;3.40;;;14.90;99.90;;;;;;5035636;28;20048;-76
2022/10/03 13:39:41;;;;;;;11.93;4.05;;;14.90;99.90;;;;;;5035247;28;20211;-76
2022/10/03 13:42:18;;;;;;;9.23;3.78;;;14.90;99.90;;;;;;5034050;28;20052;-76
2022/10/03 13:44:49;;;;;;;6.90;3.65;;;14.90;99.90;;;;;;5035624;28;20029;-76
2022/10/03 13:47:23;;;;;;;9.82;3.50;;;15.00;99.90;;;;;;5041525;28;20095;-75
2022/10/03 13:49:55;;;;;;;6.55;3.92;;;15.00;99.90;;;;;;5025979;28;20087;-76
2022/10/03 13:52:34;;;;;;;11.98;3.95;;;15.10;99.90;;;;;;5032333;28;20029;-77
2022/10/03 13:55:32;;;;;;;7.00;3.85;;;15.10;99.90;;;;;;5032646;28;20033;-76
2022/10/03 13:58:29;;;;;;;9.32;3.28;;;15.20;99.90;;;;;;5023985;28;20097;-77
2022/10/03 14:01:10;;;;;;;9.50;4.30;;;15.20;99.90;;;;;;5036001;28;20083;-77
2022/10/03 14:04:13;;;;;;;8.35;3.35;;;15.30;99.90;;;;;;5029740;28;20021;-77
2022/10/03 14:06:55;;;;;;;9.35;3.72;;;15.30;99.90;;;;;;5046257;28;20060;-76
2022/10/03 14:09:45;;;;;;;7.03;3.63;;;15.40;99.90;;;;;;5049186;28;20490;-75
2022/10/03 14:12:21;;;;;;;9.45;3.70;;;15.40;99.90;;;;;;5030434;28;20101;-76
2022/10/03 14:15:21;;;;;;;6.60;3.22;;;15.50;99.90;;;;;;5029551;28;20033;-76
2022/10/03 14:18:12;;;;;;;7.38;3.53;;;15.50;99.90;;;;;;4978655;28;20494;-77
2022/10/03 14:21:16;;;;;;;6.85;2.95;;;15.50;99.90;;;;;;5031705;28;20077;-75
2022/10/03 14:24:26;;;;;;;5.75;3.13;;;15.50;99.90;;;;;;5030989;28;20029;-76
2022/10/03 14:27:13;;;;;;;6.82;2.78;;;15.50;99.90;;;;;;5033166;28;20546;-76
2022/10/03 14:29:47;;;;;;;5.32;3.50;;;15.50;99.90;;;;;;5045995;28;20029;-75
2022/10/03 14:32:37;;;;;;;8.45;3.53;;;15.40;99.90;;;;;;5033300;28;20540;-75
2022/10/03 14:35:26;;;;;;;6.30;3.78;;;15.40;99.90;;;;;;5033215;28;20113;-76
2022/10/03 14:38:22;;;;;;;5.93;2.92;;;15.30;99.90;;;;;;5030555;28;20014;-77
2022/10/03 14:41:02;;;;;;;7.47;3.10;;;15.20;99.90;;;;;;5023320;28;20025;-76
2022/10/03 14:44:04;;;;;;;8.88;3.50;;;15.20;99.90;;;;;;5035621;28;20441;-77
2022/10/03 14:46:53;;;;;;;6.43;3.17;;;15.20;99.90;;;;;;4997999;28;20087;-76
2022/10/03 14:49:26;;;;;;;5.30;3.45;;;15.10;99.90;;;;;;5047909;28;20022;-77